Decoded Metar for KLWM (LAWRENCE in MA, USA) (IATA:LWM) | Meteo·Mobile Aviation Weather
aviador You're here:

KLWM Decoded Metar

LAWRENCE in MA, USA
Report Time2018-10-18 10:54:00
UTC Time2018-10-18 11:31:55
Flight Rules vfr VFR
Wind290° at 11 Gusting to 18 kt
W.Decomp.*RWY 32: 10.6 kt HW 2.8 kt LCW
RWY 23: 2.8 kt HW 10.6 kt RCW
W.Rank290° ranks 5
Current wind is above 290° avg. (8.3)
Visibility9999 m
Phenomena:N/A
Clouds:N/A
Expected CloudBase > 3,200 ft AGL from Temp-Dew spread
CeilingNone
Temp03°C (ISA -12)
Dew Point-5°C (56% RH)
AAT-3.6°C
QNH1020 hPa
Density Alt-1,414 ft
Elevation177 ft
Report Wrong Elevation
Raw Report
KLWM 181054Z 29011G18KT 10SM CLR 03/M05 A3013 RMK AO2 SLP203
T00331050=

Extra information for KLWM:More info

Metar Taf Metar & Taf Last 4 Metars F.Rules Stats Wind Profile Meteogram Temp Stats Airport Information Weather charts Add Link Nearby VenuesMetar ALERT Operation Metar Decoded Social comments

AIRNAV info for KLWM